createdAt,value
2019-05-07T00:01:23.638Z,7.30
2019-05-07T00:03:55.011Z,7.30
2019-05-07T00:06:25.387Z,7.20
2019-05-07T00:08:55.519Z,7.30
2019-05-07T00:11:26.623Z,7.20
2019-05-07T00:13:56.845Z,7.20
2019-05-07T00:16:27.238Z,7.10
2019-05-07T00:18:57.598Z,7.10
2019-05-07T00:21:28.009Z,7.20
2019-05-07T00:23:58.925Z,7.20
2019-05-07T00:26:29.342Z,7.20
2019-05-07T00:29:02.159Z,7.20
2019-05-07T00:31:32.596Z,7.20
2019-05-07T00:34:03.250Z,7.20
2019-05-07T00:36:42.239Z,7.20
2019-05-07T00:39:43.787Z,7.30
2019-05-07T00:42:21.803Z,7.30
2019-05-07T00:45:17.161Z,7.50
2019-05-07T00:47:42.574Z,7.50
2019-05-07T00:50:19.378Z,7.50
2019-05-07T00:52:49.533Z,7.50
2019-05-07T00:55:19.646Z,7.50
2019-05-07T00:57:52.496Z,7.60
2019-05-07T01:00:30.280Z,7.70
2019-05-07T01:03:03.073Z,7.70
2019-05-07T01:05:43.339Z,7.80
2019-05-07T01:08:13.747Z,7.90
2019-05-07T01:10:43.829Z,7.80
2019-05-07T01:13:13.979Z,7.80
2019-05-07T01:15:44.166Z,7.70
2019-05-07T01:18:14.233Z,7.70
2019-05-07T01:20:44.522Z,7.60
2019-05-07T01:23:14.930Z,7.50
2019-05-07T01:25:49.410Z,7.40
2019-05-07T01:28:22.181Z,7.40
2019-05-07T01:30:52.974Z,7.40
2019-05-07T01:33:30.750Z,7.40
2019-05-07T01:36:22.469Z,7.50
2019-05-07T01:38:52.432Z,7.50
2019-05-07T01:41:23.223Z,7.50
2019-05-07T01:43:53.598Z,7.50
2019-05-07T01:46:24.792Z,7.50
2019-05-07T01:48:57.467Z,7.50
2019-05-07T01:51:32.483Z,7.50
2019-05-07T01:54:02.382Z,7.50
2019-05-07T01:56:34.626Z,7.50
2019-05-07T01:59:05.139Z,7.40
2019-05-07T02:01:35.905Z,7.40
2019-05-07T02:04:22.407Z,7.30
2019-05-07T02:07:27.845Z,7.30
2019-05-07T02:10:02.782Z,7.20
2019-05-07T02:12:35.921Z,7.10
2019-05-07T02:15:08.198Z,7.20
2019-05-07T02:17:38.754Z,7.10
2019-05-07T02:20:27.780Z,7.20
2019-05-07T02:22:58.365Z,7.10
2019-05-07T02:25:32.537Z,7.10
2019-05-07T02:28:02.695Z,7.00
2019-05-07T02:30:35.110Z,7.00
2019-05-07T02:33:05.055Z,7.10
2019-05-07T02:35:36.121Z,6.80
2019-05-07T02:38:15.091Z,6.80
2019-05-07T02:40:53.403Z,6.70
2019-05-07T02:43:24.090Z,6.70
2019-05-07T02:46:21.575Z,6.70
2019-05-07T02:48:46.428Z,6.80
2019-05-07T02:51:23.951Z,6.90
2019-05-07T02:54:03.720Z,6.90
2019-05-07T02:56:35.055Z,6.80
2019-05-07T02:59:05.487Z,6.80
2019-05-07T03:01:35.919Z,6.80
2019-05-07T03:04:07.978Z,6.80
2019-05-07T03:06:38.883Z,6.90
2019-05-07T03:09:14.113Z,6.90
2019-05-07T03:11:43.625Z,6.90
2019-05-07T03:14:16.496Z,6.90
2019-05-07T03:16:49.447Z,6.90
2019-05-07T03:19:28.034Z,6.80
2019-05-07T03:21:58.119Z,6.80
2019-05-07T03:24:37.089Z,6.90
2019-05-07T03:27:08.891Z,6.90
2019-05-07T03:30:04.288Z,6.90
2019-05-07T03:32:40.946Z,6.90
2019-05-07T03:35:19.977Z,6.80
2019-05-07T03:37:50.488Z,6.80
2019-05-07T03:40:23.031Z,6.80
2019-05-07T03:42:53.771Z,6.80
2019-05-07T03:45:54.550Z,6.80
2019-05-07T03:48:26.338Z,6.80
2019-05-07T03:50:56.670Z,6.80
2019-05-07T03:53:27.006Z,6.80
2019-05-07T03:55:57.165Z,6.80
2019-05-07T03:58:42.854Z,6.80
2019-05-07T04:01:13.573Z,6.90
2019-05-07T04:03:44.842Z,6.80
2019-05-07T04:06:16.793Z,6.70
2019-05-07T04:08:46.933Z,6.70
2019-05-07T04:11:22.977Z,6.70
2019-05-07T04:13:53.774Z,6.70
2019-05-07T04:16:24.217Z,6.80
2019-05-07T04:18:55.265Z,6.80
2019-05-07T04:21:25.475Z,6.80
2019-05-07T04:24:13.830Z,6.80
2019-05-07T04:26:48.271Z,6.80
2019-05-07T04:29:18.502Z,6.90
2019-05-07T04:31:48.969Z,6.90
2019-05-07T04:34:24.715Z,7.00
2019-05-07T04:36:55.717Z,7.00
2019-05-07T04:39:26.251Z,7.00
2019-05-07T04:41:56.915Z,7.10
2019-05-07T04:44:27.219Z,7.10
2019-05-07T04:46:58.091Z,7.30
2019-05-07T04:49:28.424Z,7.30
2019-05-07T04:52:05.092Z,7.40
2019-05-07T04:54:37.580Z,7.50
2019-05-07T04:57:25.738Z,7.60
2019-05-07T04:59:57.318Z,7.60
2019-05-07T05:02:53.201Z,7.60
2019-05-07T05:05:24.279Z,7.60
2019-05-07T05:07:56.052Z,7.70
2019-05-07T05:10:26.918Z,7.70
2019-05-07T05:12:57.343Z,7.80
2019-05-07T05:15:28.914Z,8.20
2019-05-07T05:18:02.421Z,8.40
2019-05-07T05:21:17.859Z,8.60
2019-05-07T05:23:53.270Z,8.40
2019-05-07T05:26:23.367Z,8.70
2019-05-07T05:28:53.538Z,8.30
2019-05-07T05:31:23.786Z,8.30
2019-05-07T05:33:58.863Z,8.40
2019-05-07T05:36:29.602Z,8.60
2019-05-07T05:39:02.331Z,8.50
2019-05-07T05:41:35.183Z,8.50
2019-05-07T05:44:11.779Z,8.40
2019-05-07T05:46:42.843Z,8.40
2019-05-07T05:49:13.300Z,8.50
2019-05-07T05:51:49.667Z,8.30
2019-05-07T05:54:32.094Z,8.50
2019-05-07T05:57:14.046Z,8.60
2019-05-07T05:59:57.691Z,8.60
2019-05-07T06:02:39.782Z,8.50
2019-05-07T06:05:34.428Z,8.40
2019-05-07T06:08:32.310Z,8.30
2019-05-07T06:11:24.077Z,8.40
2019-05-07T06:14:26.622Z,8.40
2019-05-07T06:17:06.180Z,8.10
2019-05-07T06:19:48.671Z,8.00
2019-05-07T06:22:42.466Z,8.00
2019-05-07T06:25:24.606Z,7.80
2019-05-07T06:27:52.977Z,7.90
2019-05-07T06:30:23.125Z,8.30
2019-05-07T06:32:53.453Z,8.60
2019-05-07T06:35:26.066Z,8.80
2019-05-07T06:37:56.118Z,9.40
2019-05-07T06:40:33.530Z,9.40
2019-05-07T06:43:12.395Z,9.50
2019-05-07T06:45:46.526Z,9.20
2019-05-07T06:48:33.551Z,9.00
2019-05-07T06:51:08.370Z,9.00
2019-05-07T06:53:39.034Z,9.10
2019-05-07T06:56:11.693Z,9.00
2019-05-07T06:58:49.282Z,9.10
2019-05-07T07:01:54.813Z,9.60
2019-05-07T07:04:33.144Z,9.70
2019-05-07T07:07:33.932Z,9.60
2019-05-07T07:10:27.756Z,9.60
2019-05-07T07:12:58.099Z,9.90
2019-05-07T07:15:28.323Z,10.30
2019-05-07T07:17:58.517Z,10.20
2019-05-07T07:20:28.658Z,9.50
2019-05-07T07:22:58.726Z,9.20
2019-05-07T07:25:28.793Z,9.50
2019-05-07T07:27:58.860Z,9.50
2019-05-07T07:30:47.617Z,9.80
2019-05-07T07:33:18.823Z,10.10
2019-05-07T07:35:51.924Z,10.30
2019-05-07T07:38:36.139Z,9.90
2019-05-07T07:41:33.512Z,9.80
2019-05-07T07:44:03.998Z,9.60
2019-05-07T07:46:34.143Z,10.00
2019-05-07T07:49:11.062Z,10.70
2019-05-07T07:51:41.541Z,10.60
2019-05-07T07:54:08.624Z,10.90
2019-05-07T07:56:56.916Z,10.70
2019-05-07T07:59:41.976Z,10.30
2019-05-07T08:02:26.285Z,9.70
2019-05-07T08:04:58.369Z,10.10
2019-05-07T08:07:28.454Z,10.60
2019-05-07T08:09:58.557Z,11.00
2019-05-07T08:12:32.354Z,10.70
2019-05-07T08:15:14.703Z,10.60
2019-05-07T08:17:33.762Z,10.70
2019-05-07T08:20:08.138Z,10.80
2019-05-07T08:22:59.254Z,10.40
2019-05-07T08:25:47.624Z,9.90
2019-05-07T08:28:23.243Z,9.30
2019-05-07T08:31:12.069Z,9.80
2019-05-07T08:33:51.835Z,10.20
2019-05-07T08:36:22.699Z,11.00
2019-05-07T08:38:53.972Z,11.60
2019-05-07T08:41:28.227Z,11.80
2019-05-07T08:44:17.519Z,11.80
2019-05-07T08:47:05.483Z,11.70
2019-05-07T08:49:39.898Z,11.10
2019-05-07T08:52:12.054Z,11.00
2019-05-07T08:54:42.822Z,11.30
2019-05-07T08:57:13.373Z,11.50
2019-05-07T08:59:57.590Z,11.40
2019-05-07T09:02:15.783Z,11.40
2019-05-07T09:04:52.614Z,11.50
2019-05-07T09:07:23.417Z,12.30
2019-05-07T09:09:53.743Z,12.70
2019-05-07T09:12:23.870Z,13.00
2019-05-07T09:14:54.370Z,13.20
2019-05-07T09:17:24.680Z,12.80
2019-05-07T09:19:55.242Z,12.10
2019-05-07T09:22:25.570Z,11.60
2019-05-07T09:24:55.966Z,11.30
2019-05-07T09:27:32.891Z,11.50
2019-05-07T09:30:16.121Z,11.90
2019-05-07T09:32:52.164Z,11.70
2019-05-07T09:35:26.278Z,11.70
2019-05-07T09:37:56.581Z,12.30
2019-05-07T09:40:26.660Z,12.60
2019-05-07T09:43:08.452Z,12.60
2019-05-07T09:45:38.757Z,12.80
2019-05-07T09:48:08.850Z,12.50
2019-05-07T09:50:39.479Z,11.90
2019-05-07T09:53:09.834Z,11.70
2019-05-07T09:55:39.918Z,11.60
2019-05-07T09:58:12.349Z,11.50
2019-05-07T10:00:42.735Z,11.40
2019-05-07T10:03:13.105Z,10.90
2019-05-07T10:05:43.203Z,10.90
2019-05-07T10:08:13.529Z,10.60
2019-05-07T10:10:45.036Z,10.80
2019-05-07T10:13:34.401Z,10.90
2019-05-07T10:16:07.667Z,11.10
2019-05-07T10:18:37.758Z,11.70
2019-05-07T10:21:08.225Z,12.30
2019-05-07T10:23:41.581Z,13.10
2019-05-07T10:26:12.205Z,13.30
2019-05-07T10:28:42.568Z,12.60
2019-05-07T10:31:13.187Z,12.20
2019-05-07T10:33:44.054Z,12.00
2019-05-07T10:36:14.902Z,12.10
2019-05-07T10:38:45.815Z,12.50
2019-05-07T10:41:17.330Z,12.20
2019-05-07T10:43:47.749Z,11.80
2019-05-07T10:46:29.397Z,11.50
2019-05-07T10:49:19.230Z,11.50
2019-05-07T10:51:51.684Z,12.00
2019-05-07T10:54:21.864Z,12.60
2019-05-07T10:56:52.517Z,13.40
2019-05-07T10:59:22.765Z,13.90
2019-05-07T11:01:59.306Z,13.60
2019-05-07T11:04:40.156Z,13.40
2019-05-07T11:07:01.876Z,13.00
2019-05-07T11:09:32.812Z,13.30
2019-05-07T11:12:03.374Z,13.70
2019-05-07T11:14:33.604Z,13.50
2019-05-07T11:17:22.400Z,13.90
2019-05-07T11:19:52.614Z,14.00
2019-05-07T11:22:22.814Z,14.90
2019-05-07T11:25:03.340Z,15.30
2019-05-07T11:27:34.203Z,15.00
2019-05-07T11:30:05.094Z,14.70
2019-05-07T11:32:38.481Z,14.80
2019-05-07T11:35:09.119Z,14.60
2019-05-07T11:37:39.552Z,15.00
2019-05-07T11:40:10.491Z,15.00
2019-05-07T11:43:02.540Z,14.00
2019-05-07T11:45:40.228Z,13.30
2019-05-07T11:48:13.103Z,12.90
2019-05-07T11:51:04.380Z,12.00
2019-05-07T11:53:34.721Z,11.80
2019-05-07T11:56:05.710Z,12.10
2019-05-07T11:58:36.459Z,13.10
2019-05-07T12:01:14.458Z,14.10
2019-05-07T12:03:44.619Z,14.50
2019-05-07T12:06:15.079Z,14.40
2019-05-07T12:08:51.658Z,14.60
2019-05-07T12:11:17.258Z,14.10
2019-05-07T12:13:48.142Z,12.90
2019-05-07T12:16:18.776Z,12.60
2019-05-07T12:18:49.350Z,12.50
2019-05-07T12:21:23.593Z,12.70
2019-05-07T12:23:52.626Z,13.30
2019-05-07T12:26:22.802Z,13.60
2019-05-07T12:28:53.198Z,13.40
2019-05-07T12:31:36.054Z,13.80
2019-05-07T12:34:11.812Z,14.30
2019-05-07T12:36:42.189Z,14.50
2019-05-07T12:39:13.411Z,14.40
2019-05-07T12:41:43.918Z,14.60
2019-05-07T12:44:14.258Z,14.40
2019-05-07T12:46:44.721Z,14.60
2019-05-07T12:49:17.553Z,14.60
2019-05-07T12:51:56.960Z,15.40
2019-05-07T12:54:38.437Z,15.90
2019-05-07T12:57:08.798Z,16.10
2019-05-07T12:59:38.917Z,15.40
2019-05-07T13:02:38.061Z,15.40
2019-05-07T13:05:03.435Z,15.70
2019-05-07T13:07:47.621Z,15.50
2019-05-07T13:10:17.800Z,15.20
2019-05-07T13:12:48.088Z,15.40
2019-05-07T13:15:25.123Z,15.50
2019-05-07T13:17:51.960Z,15.50
2019-05-07T13:20:22.748Z,15.00
2019-05-07T13:22:52.910Z,14.30
2019-05-07T13:25:28.155Z,14.20
2019-05-07T13:27:55.354Z,13.80
2019-05-07T13:30:25.860Z,13.70
2019-05-07T13:32:57.087Z,14.20
2019-05-07T13:35:27.659Z,14.40
2019-05-07T13:38:26.419Z,14.80
2019-05-07T13:41:14.367Z,14.60
2019-05-07T13:44:15.954Z,14.20
2019-05-07T13:46:47.991Z,14.00
2019-05-07T13:49:18.334Z,13.80
2019-05-07T13:52:02.527Z,13.90
2019-05-07T13:54:21.801Z,13.40
2019-05-07T13:56:52.686Z,13.20
2019-05-07T13:59:23.089Z,13.00
2019-05-07T14:02:06.531Z,13.10
2019-05-07T14:04:37.744Z,13.90
2019-05-07T14:07:08.867Z,14.00
2019-05-07T14:09:41.873Z,13.50
2019-05-07T14:12:12.285Z,13.30
2019-05-07T14:14:43.201Z,13.20
2019-05-07T14:17:13.561Z,13.20
2019-05-07T14:19:44.674Z,13.20
2019-05-07T14:22:19.011Z,13.20
2019-05-07T14:24:48.838Z,13.00
2019-05-07T14:27:19.261Z,13.00
2019-05-07T14:29:51.985Z,13.30
2019-05-07T14:32:31.166Z,13.50
2019-05-07T14:35:12.322Z,13.70
2019-05-07T14:37:45.893Z,13.80
2019-05-07T14:40:16.415Z,13.60
2019-05-07T14:42:52.521Z,13.70
2019-05-07T14:45:23.808Z,14.10
2019-05-07T14:47:54.481Z,14.20
2019-05-07T14:50:24.982Z,13.90
2019-05-07T14:52:55.418Z,13.80
2019-05-07T14:55:26.486Z,13.70
2019-05-07T14:57:57.984Z,14.10
2019-05-07T15:00:28.054Z,14.20
2019-05-07T15:02:58.484Z,14.80
2019-05-07T15:05:28.744Z,14.60
2019-05-07T15:08:08.442Z,15.20
2019-05-07T15:10:32.573Z,15.30
2019-05-07T15:13:03.317Z,15.40
2019-05-07T15:15:33.638Z,16.20
2019-05-07T15:18:19.138Z,17.70
2019-05-07T15:20:49.453Z,17.00
2019-05-07T15:23:28.635Z,16.40
2019-05-07T15:26:01.736Z,16.00
2019-05-07T15:28:52.144Z,15.50
2019-05-07T15:31:42.877Z,16.30
2019-05-07T15:34:13.405Z,16.80
2019-05-07T15:36:44.217Z,16.70
2019-05-07T15:39:14.557Z,16.30
2019-05-07T15:41:53.096Z,15.70
2019-05-07T15:44:23.771Z,15.00
2019-05-07T15:47:04.324Z,14.50
2019-05-07T15:49:34.437Z,14.30
2019-05-07T15:52:08.469Z,14.30
2019-05-07T15:54:43.138Z,14.40
2019-05-07T15:57:16.505Z,14.50
2019-05-07T15:59:48.718Z,14.50
2019-05-07T16:02:33.725Z,14.60
2019-05-07T16:05:05.076Z,14.40
2019-05-07T16:07:36.510Z,14.80
2019-05-07T16:10:07.314Z,14.70
2019-05-07T16:12:48.234Z,14.30
2019-05-07T16:15:22.515Z,14.80
2019-05-07T16:17:58.254Z,15.10
2019-05-07T16:20:29.038Z,14.90
2019-05-07T16:23:14.375Z,14.40
2019-05-07T16:25:34.837Z,14.30
2019-05-07T16:28:05.390Z,13.90
2019-05-07T16:30:35.699Z,13.90
2019-05-07T16:33:12.603Z,13.80
2019-05-07T16:35:43.430Z,13.70
2019-05-07T16:38:15.608Z,14.30
2019-05-07T16:40:45.773Z,16.00
2019-05-07T16:43:16.104Z,16.20
2019-05-07T16:45:46.717Z,16.00
2019-05-07T16:48:17.270Z,16.20
2019-05-07T16:50:47.598Z,16.10
2019-05-07T16:53:27.535Z,16.00
2019-05-07T16:55:52.246Z,16.00
2019-05-07T16:58:45.083Z,15.90
2019-05-07T17:01:22.249Z,15.60
2019-05-07T17:03:56.156Z,15.10
2019-05-07T17:06:32.905Z,14.50
2019-05-07T17:09:10.214Z,14.50
2019-05-07T17:11:40.777Z,14.40
2019-05-07T17:14:12.911Z,14.20
2019-05-07T17:16:58.269Z,14.20
2019-05-07T17:19:28.827Z,14.20
2019-05-07T17:21:59.630Z,13.90
2019-05-07T17:24:32.970Z,13.80
2019-05-07T17:27:04.545Z,13.70
2019-05-07T17:29:34.674Z,13.50
2019-05-07T17:32:05.065Z,13.40
2019-05-07T17:34:35.125Z,13.20
2019-05-07T17:37:17.381Z,13.10
2019-05-07T17:39:47.420Z,12.90
2019-05-07T17:42:17.486Z,12.80
2019-05-07T17:44:48.033Z,12.70
2019-05-07T17:47:32.050Z,12.60
2019-05-07T17:50:03.164Z,12.50
2019-05-07T17:52:33.966Z,12.30
2019-05-07T17:55:04.774Z,12.10
2019-05-07T17:57:35.082Z,12.10
2019-05-07T18:00:05.973Z,12.00
2019-05-07T18:03:08.805Z,12.00
2019-05-07T18:05:39.302Z,11.90
2019-05-07T18:08:09.801Z,11.70
2019-05-07T18:10:47.743Z,11.60
2019-05-07T18:13:19.132Z,11.50
2019-05-07T18:15:49.440Z,11.40
2019-05-07T18:18:22.107Z,11.10
2019-05-07T18:20:52.514Z,10.90
2019-05-07T18:23:24.817Z,10.80
2019-05-07T18:25:56.858Z,10.60
2019-05-07T18:28:32.347Z,10.40
2019-05-07T18:31:44.787Z,10.30
2019-05-07T18:34:15.361Z,10.20
2019-05-07T18:36:45.964Z,10.00
2019-05-07T18:39:16.355Z,9.80
2019-05-07T18:41:47.240Z,9.70
2019-05-07T18:44:17.295Z,9.50
2019-05-07T18:46:47.349Z,9.40
2019-05-07T18:49:17.898Z,9.30
2019-05-07T18:51:52.553Z,9.20
2019-05-07T18:54:30.335Z,9.20
2019-05-07T18:56:54.854Z,9.00
2019-05-07T18:59:26.608Z,8.90
2019-05-07T19:02:06.773Z,8.80
2019-05-07T19:04:36.837Z,8.60
2019-05-07T19:07:08.351Z,8.60
2019-05-07T19:09:38.394Z,8.40
2019-05-07T19:12:16.221Z,8.40
2019-05-07T19:14:46.586Z,8.30
2019-05-07T19:17:17.381Z,8.20
2019-05-07T19:19:47.433Z,8.20
2019-05-07T19:22:22.253Z,8.10
2019-05-07T19:24:52.829Z,8.10
2019-05-07T19:27:28.434Z,8.00
2019-05-07T19:29:59.282Z,8.00
2019-05-07T19:32:32.665Z,8.00
2019-05-07T19:35:12.405Z,7.90
2019-05-07T19:37:43.114Z,7.90
2019-05-07T19:40:13.962Z,7.90
2019-05-07T19:42:48.370Z,7.90
2019-05-07T19:45:21.676Z,7.80
2019-05-07T19:47:52.757Z,7.80
2019-05-07T19:50:23.429Z,7.80
2019-05-07T19:53:09.402Z,7.70
2019-05-07T19:55:57.644Z,7.70
2019-05-07T19:58:28.377Z,7.70
2019-05-07T20:01:00.982Z,7.70
2019-05-07T20:03:32.718Z,7.60
2019-05-07T20:06:02.998Z,7.60
2019-05-07T20:08:33.347Z,7.50
2019-05-07T20:11:11.946Z,7.50
2019-05-07T20:13:43.770Z,7.40
2019-05-07T20:16:17.858Z,7.40
2019-05-07T20:18:52.621Z,7.40
2019-05-07T20:21:23.136Z,7.40
2019-05-07T20:23:53.196Z,7.40
2019-05-07T20:26:23.427Z,7.50
2019-05-07T20:28:53.602Z,7.50
2019-05-07T20:31:24.601Z,7.50
2019-05-07T20:33:55.876Z,7.50
2019-05-07T20:36:32.913Z,7.40
2019-05-07T20:39:04.788Z,7.30
2019-05-07T20:41:37.163Z,7.30
2019-05-07T20:44:17.269Z,7.30
2019-05-07T20:46:47.607Z,7.30
2019-05-07T20:49:17.967Z,7.30
2019-05-07T20:51:48.106Z,7.20
2019-05-07T20:54:32.642Z,7.30
2019-05-07T20:57:15.326Z,7.30
2019-05-07T20:59:46.125Z,7.20
2019-05-07T21:02:17.580Z,7.20
2019-05-07T21:04:47.756Z,7.30
2019-05-07T21:07:22.236Z,7.30
2019-05-07T21:09:53.114Z,7.30
2019-05-07T21:12:23.388Z,7.30
2019-05-07T21:14:54.823Z,7.30
2019-05-07T21:17:24.934Z,7.40
2019-05-07T21:19:55.383Z,7.30
2019-05-07T21:22:28.230Z,7.30
2019-05-07T21:25:02.709Z,7.20
2019-05-07T21:27:33.626Z,7.20
2019-05-07T21:30:04.286Z,7.20
2019-05-07T21:32:36.429Z,7.00
2019-05-07T21:35:29.109Z,6.90
2019-05-07T21:37:59.835Z,6.80
2019-05-07T21:40:31.948Z,6.70
2019-05-07T21:43:02.209Z,6.80
2019-05-07T21:45:32.726Z,6.60
2019-05-07T21:48:03.180Z,6.50
2019-05-07T21:50:33.422Z,6.30
2019-05-07T21:53:09.289Z,6.20
2019-05-07T21:55:58.849Z,6.10
2019-05-07T21:58:34.478Z,6.00
2019-05-07T22:01:28.623Z,5.90
2019-05-07T22:04:01.890Z,5.80
2019-05-07T22:06:38.366Z,5.70
2019-05-07T22:09:09.966Z,5.70
2019-05-07T22:11:42.757Z,5.60
2019-05-07T22:14:13.034Z,5.50
2019-05-07T22:17:05.550Z,5.50
2019-05-07T22:19:35.945Z,5.50
2019-05-07T22:22:06.330Z,5.30
2019-05-07T22:24:36.845Z,5.30
2019-05-07T22:27:07.241Z,5.20
2019-05-07T22:29:37.303Z,5.20
2019-05-07T22:32:18.629Z,5.10
2019-05-07T22:35:12.057Z,5.00
2019-05-07T22:37:44.307Z,4.90
2019-05-07T22:40:22.648Z,4.80
2019-05-07T22:42:54.847Z,4.70
2019-05-07T22:45:38.253Z,4.70
2019-05-07T22:48:20.216Z,4.60
2019-05-07T22:51:03.006Z,4.50
2019-05-07T22:53:45.613Z,4.60
2019-05-07T22:56:46.376Z,4.60
2019-05-07T22:59:28.687Z,4.50
2019-05-07T23:02:12.215Z,4.40
2019-05-07T23:04:54.634Z,4.30
2019-05-07T23:07:36.326Z,4.20
2019-05-07T23:10:19.370Z,4.10
2019-05-07T23:13:02.423Z,4.10
2019-05-07T23:15:45.100Z,4.10
2019-05-07T23:18:27.002Z,4.00
2019-05-07T23:21:09.841Z,3.90
2019-05-07T23:23:52.755Z,4.00
2019-05-07T23:26:47.444Z,3.90
2019-05-07T23:29:19.444Z,3.90
2019-05-07T23:32:02.163Z,3.80
2019-05-07T23:34:44.486Z,3.80
2019-05-07T23:37:27.316Z,3.70
2019-05-07T23:40:16.258Z,3.80
2019-05-07T23:43:02.875Z,3.70
2019-05-07T23:45:45.113Z,3.60
2019-05-07T23:48:27.662Z,3.60
2019-05-07T23:51:12.485Z,3.50
2019-05-07T23:53:54.798Z,3.50
2019-05-07T23:56:37.170Z,3.40
2019-05-07T23:59:22.083Z,3.40
